CheckWX is a tool to help pilots better visualize weather data.  It is not intended as a substitute for an official pre-flight weather briefing.

21:53:06 UTC

KEXX METAR
Davidson County Airport
Lexington, North Carolina, USA
Current

18 mins ago

KEXX 112135Z AUTO 25006KT 220V300 10SM CLR 31/18 A2983 RMK AO2 T03060182
Observed
Jul-11 @ 21:35 UTC
Wind
  • 250° at 6 KTS
Visibility
10 SM
Flight Rules
VFR
Cloud Levels
  • Clear skies
Temperature
31°C / 88°F
Dewpoint
18°C / 64°F
Humidity
46%
Altimeter
29.83" Hg
Pressure
1010.12 hPa
Previous

38 mins ago

KEXX 112115Z AUTO 00000KT 10SM CLR 31/18 A2983 RMK AO2 T03060177
Observed
Jul-11 @ 21:15 UTC
Visibility
10 SM
Flight Rules
VFR
Cloud Levels
  • Clear skies
Temperature
31°C / 88°F
Dewpoint
18°C / 64°F
Humidity
46%
Altimeter
29.83" Hg
Pressure
1010.12 hPa
Previous

58 mins ago

KEXX 112055Z AUTO 00000KT 10SM CLR 30/19 A2983 RMK AO2 P0001 60003 T02990185
Observed
Jul-11 @ 20:55 UTC
Visibility
10 SM
Flight Rules
VFR
Cloud Levels
  • Clear skies
Temperature
30°C / 86°F
Dewpoint
18°C / 64°F
Humidity
49%
Altimeter
29.83" Hg
Pressure
1010.12 hPa
Current Rain
0.01"